Aeroporto :
LOGIN :

Iscrizione | Disclaimer

   EN    FR    IT 

 










Sommario :    VFR   VFR Marginale   IFR   IFR Intensivo   IFR Molto Intensivo
Visibilità : 
Base nubi : 
>= 8 km
>= 3000ft
5 / 8 km
1000 / 3000 ft
1500m / 5 km
500 / 1000 ft
800 / 1500m
200 / 500 ft
< 800m
< 200 ft
Simboli :   Temporali  Nebbia  Neve Forte  Precipitazioni Forti  Vento > 20 kt
SIGMETs :   Varie  Temporali  Ghiacco  Turbolenza  Onda orograficha  Ceneri Vulcaniche






- Altitudine del aeroporto : 408 ft
- Codice IATA : KWG


UKDR - Lozuvatka

ULTIMO METAR :
  • 300730Z 30002MPS 270V330 CAVOK 11/06 Q1004 R36/09//70 NOSIG

METARs OBSOLETI :
  • 300700Z 29002MPS CAVOK 10/07 Q1004 R36/09//70 NOSIG
  • 300630Z 29002MPS CAVOK 09/06 Q1003 R36/09//70 NOSIG
  • 300600Z 29001MPS CAVOK 08/06 Q1003 R36/09//70 NOSIG
  • 300530Z 29002MPS CAVOK 08/06 Q1003 R36/09//70 NOSIG
  • 300500Z 30001MPS CAVOK 08/06 Q1003 R36/09//70 NOSIG

TAF TAF UKDR
Valido dal 30 a 06 ore il 31 a 06 ore UTC


300501Z 3006/3106 33005MPS 9999 BKN020 TX14/3012Z TN02/3103Z
TEMPO 3012/3018 33007G12MPS 2100 -SHRA BKN007 BKN015CB



MetMap, La meteo Aeronautica in un colpo d'occhio ! - Copyright ORBIFLY Dicembre 2007 - Disclaimer

ORBIFLY MET'MAP TEAM :

Programmazione e sviluppo : Alexandra Zaïnal
Concezione : Baudouin d'Aumeries
Aiuto per la programmazione : Marc-Olivier Méhu
Supporto tecnico e logistico : Manuel Goepfert
Aiuto per la traduzione : Arnaldo La Scala

Contatto : metmap@orbifly.com




FONTI E CREDITI :

   NOAA